Champion, Canada
Current Conditions -  °F | °C
As of 1:47 PM on Tuesday 21 Oct 2014 (Local Time) from CYQL Reporting Station
Overcast Overcast  
Wind Chill: 55°   Ceiling: 7000
Heat Index: 55°   Visibility: 40mi
Dew Point: 39°   Wind: 14mph
Humidity: 54%   Direction: 230°SW
Pressure: 29.68"   Gusts: 22mph
Location:  50.22°N, 113.15°W
Report Text: CYQL 211947Z 23012G19KT 40SM OVC070 13/04 A2968 RMK AC8 ACC EMBD VIRGA SLP060 DENSITY ALT 3700FT
Loading
Personal Weather Stations






























Interactive Weather Map New forecast layout! Learn more

10-Day Weather Forecast

Advertisements
Track Severe Weather on mobile